sensor_id;sensor_type;location;lat;lon;timestamp;P1;durP1;ratioP1;P2;durP2;ratioP2
66721;SDS011;53633;49.932;10.884;2023-02-28T00:00:08;7.72;;;2.35;;
66721;SDS011;53633;49.932;10.884;2023-02-28T00:02:38;7.40;;;2.70;;
66721;SDS011;53633;49.932;10.884;2023-02-28T00:05:06;8.52;;;2.53;;
66721;SDS011;53633;49.932;10.884;2023-02-28T00:07:35;8.65;;;3.05;;
66721;SDS011;53633;49.932;10.884;2023-02-28T00:10:03;7.75;;;2.70;;
66721;SDS011;53633;49.932;10.884;2023-02-28T00:12:30;7.00;;;2.30;;
66721;SDS011;53633;49.932;10.884;2023-02-28T00:14:57;7.93;;;2.83;;
66721;SDS011;53633;49.932;10.884;2023-02-28T00:17:24;14.00;;;2.75;;
66721;SDS011;53633;49.932;10.884;2023-02-28T00:19:52;7.07;;;2.67;;
66721;SDS011;53633;49.932;10.884;2023-02-28T00:22:19;6.93;;;2.35;;
66721;SDS011;53633;49.932;10.884;2023-02-28T00:24:47;8.77;;;2.60;;
66721;SDS011;53633;49.932;10.884;2023-02-28T00:27:14;7.83;;;2.50;;
66721;SDS011;53633;49.932;10.884;2023-02-28T00:29:41;7.20;;;2.30;;
66721;SDS011;53633;49.932;10.884;2023-02-28T00:32:07;6.47;;;2.45;;
66721;SDS011;53633;49.932;10.884;2023-02-28T00:34:34;9.38;;;2.28;;
66721;SDS011;53633;49.932;10.884;2023-02-28T00:37:02;8.20;;;2.40;;
66721;SDS011;53633;49.932;10.884;2023-02-28T00:39:29;8.77;;;2.90;;
66721;SDS011;53633;49.932;10.884;2023-02-28T00:41:56;7.88;;;2.67;;
66721;SDS011;53633;49.932;10.884;2023-02-28T00:44:23;6.90;;;2.40;;
66721;SDS011;53633;49.932;10.884;2023-02-28T00:46:50;8.40;;;2.70;;
66721;SDS011;53633;49.932;10.884;2023-02-28T00:49:16;8.30;;;2.55;;
66721;SDS011;53633;49.932;10.884;2023-02-28T00:51:43;7.03;;;1.90;;
66721;SDS011;53633;49.932;10.884;2023-02-28T00:54:11;6.85;;;2.22;;
66721;SDS011;53633;49.932;10.884;2023-02-28T00:56:38;9.27;;;2.58;;
66721;SDS011;53633;49.932;10.884;2023-02-28T00:59:05;7.45;;;2.15;;
66721;SDS011;53633;49.932;10.884;2023-02-28T01:01:32;5.78;;;1.58;;
66721;SDS011;53633;49.932;10.884;2023-02-28T01:03:58;6.73;;;1.77;;
66721;SDS011;53633;49.932;10.884;2023-02-28T01:06:25;6.50;;;2.17;;
66721;SDS011;53633;49.932;10.884;2023-02-28T01:08:52;7.88;;;2.60;;
66721;SDS011;53633;49.932;10.884;2023-02-28T01:11:20;5.63;;;1.92;;
66721;SDS011;53633;49.932;10.884;2023-02-28T01:13:47;8.07;;;2.13;;
66721;SDS011;53633;49.932;10.884;2023-02-28T01:16:14;7.47;;;1.77;;
66721;SDS011;53633;49.932;10.884;2023-02-28T01:18:41;8.23;;;2.30;;
66721;SDS011;53633;49.932;10.884;2023-02-28T01:21:10;8.20;;;1.90;;
66721;SDS011;53633;49.932;10.884;2023-02-28T01:23:38;6.30;;;1.90;;
66721;SDS011;53633;49.932;10.884;2023-02-28T01:26:05;7.60;;;2.65;;
66721;SDS011;53633;49.932;10.884;2023-02-28T01:28:34;7.57;;;2.10;;
66721;SDS011;53633;49.932;10.884;2023-02-28T01:31:01;8.95;;;2.60;;
66721;SDS011;53633;49.932;10.884;2023-02-28T01:33:28;7.93;;;2.10;;
66721;SDS011;53633;49.932;10.884;2023-02-28T01:35:57;6.90;;;1.98;;
66721;SDS011;53633;49.932;10.884;2023-02-28T01:38:24;7.68;;;2.25;;
66721;SDS011;53633;49.932;10.884;2023-02-28T01:40:51;7.30;;;2.10;;
66721;SDS011;53633;49.932;10.884;2023-02-28T01:43:19;8.75;;;2.38;;
66721;SDS011;53633;49.932;10.884;2023-02-28T01:45:50;7.32;;;2.17;;
66721;SDS011;53633;49.932;10.884;2023-02-28T01:48:17;6.32;;;2.08;;
66721;SDS011;53633;49.932;10.884;2023-02-28T01:50:45;8.57;;;2.25;;
66721;SDS011;53633;49.932;10.884;2023-02-28T01:53:14;7.20;;;2.23;;
66721;SDS011;53633;49.932;10.884;2023-02-28T01:55:42;8.23;;;2.35;;
66721;SDS011;53633;49.932;10.884;2023-02-28T01:58:13;7.53;;;2.20;;
66721;SDS011;53633;49.932;10.884;2023-02-28T02:00:40;8.45;;;2.17;;
66721;SDS011;53633;49.932;10.884;2023-02-28T02:03:09;6.28;;;1.95;;
66721;SDS011;53633;49.932;10.884;2023-02-28T02:05:38;7.67;;;2.23;;
66721;SDS011;53633;49.932;10.884;2023-02-28T02:08:08;8.50;;;2.58;;
66721;SDS011;53633;49.932;10.884;2023-02-28T02:10:39;7.40;;;2.22;;
66721;SDS011;53633;49.932;10.884;2023-02-28T02:13:14;10.43;;;3.42;;
66721;SDS011;53633;49.932;10.884;2023-02-28T02:16:01;9.50;;;2.97;;
66721;SDS011;53633;49.932;10.884;2023-02-28T02:18:44;7.17;;;2.53;;
66721;SDS011;53633;49.932;10.884;2023-02-28T02:21:28;7.90;;;2.30;;
66721;SDS011;53633;49.932;10.884;2023-02-28T02:27:23;7.57;;;2.38;;
66721;SDS011;53633;49.932;10.884;2023-02-28T02:35:55;7.55;;;2.40;;
66721;SDS011;53633;49.932;10.884;2023-02-28T02:38:28;7.38;;;2.20;;
66721;SDS011;53633;49.932;10.884;2023-02-28T02:41:02;8.55;;;3.22;;
66721;SDS011;53633;49.932;10.884;2023-02-28T02:43:36;7.75;;;2.80;;
66721;SDS011;53633;49.932;10.884;2023-02-28T02:46:09;9.33;;;3.47;;
66721;SDS011;53633;49.932;10.884;2023-02-28T02:48:40;8.23;;;3.00;;
66721;SDS011;53633;49.932;10.884;2023-02-28T02:51:11;10.95;;;3.92;;
66721;SDS011;53633;49.932;10.884;2023-02-28T02:53:42;9.82;;;3.60;;
66721;SDS011;53633;49.932;10.884;2023-02-28T02:56:12;9.38;;;3.47;;
66721;SDS011;53633;49.932;10.884;2023-02-28T02:58:41;10.40;;;3.33;;
66721;SDS011;53633;49.932;10.884;2023-02-28T03:01:10;9.70;;;3.33;;
66721;SDS011;53633;49.932;10.884;2023-02-28T03:03:40;10.90;;;3.30;;
66721;SDS011;53633;49.932;10.884;2023-02-28T03:06:08;10.10;;;3.65;;
66721;SDS011;53633;49.932;10.884;2023-02-28T03:08:37;8.65;;;2.78;;
66721;SDS011;53633;49.932;10.884;2023-02-28T03:11:05;9.93;;;3.03;;
66721;SDS011;53633;49.932;10.884;2023-02-28T03:13:39;11.20;;;3.70;;
66721;SDS011;53633;49.932;10.884;2023-02-28T03:16:29;9.52;;;2.85;;
66721;SDS011;53633;49.932;10.884;2023-02-28T03:19:04;7.95;;;2.90;;
66721;SDS011;53633;49.932;10.884;2023-02-28T03:21:43;8.20;;;2.70;;
66721;SDS011;53633;49.932;10.884;2023-02-28T03:24:16;8.20;;;3.40;;
66721;SDS011;53633;49.932;10.884;2023-02-28T03:26:50;11.30;;;3.03;;
66721;SDS011;53633;49.932;10.884;2023-02-28T03:29:21;10.93;;;3.40;;
66721;SDS011;53633;49.932;10.884;2023-02-28T03:31:53;9.55;;;3.35;;
66721;SDS011;53633;49.932;10.884;2023-02-28T03:34:24;8.70;;;3.00;;
66721;SDS011;53633;49.932;10.884;2023-02-28T03:36:55;10.13;;;3.57;;
66721;SDS011;53633;49.932;10.884;2023-02-28T03:39:28;9.93;;;3.25;;
66721;SDS011;53633;49.932;10.884;2023-02-28T03:42:04;9.85;;;3.88;;
66721;SDS011;53633;49.932;10.884;2023-02-28T03:44:35;9.65;;;2.97;;
66721;SDS011;53633;49.932;10.884;2023-02-28T03:47:07;9.00;;;3.20;;
66721;SDS011;53633;49.932;10.884;2023-02-28T03:49:39;9.23;;;3.17;;
66721;SDS011;53633;49.932;10.884;2023-02-28T03:52:09;8.82;;;3.10;;
66721;SDS011;53633;49.932;10.884;2023-02-28T03:54:39;10.60;;;3.22;;
66721;SDS011;53633;49.932;10.884;2023-02-28T03:57:10;10.57;;;3.35;;
66721;SDS011;53633;49.932;10.884;2023-02-28T03:59:41;8.48;;;3.50;;
66721;SDS011;53633;49.932;10.884;2023-02-28T04:02:10;9.57;;;3.17;;
66721;SDS011;53633;49.932;10.884;2023-02-28T04:04:37;10.90;;;3.22;;
66721;SDS011;53633;49.932;10.884;2023-02-28T04:07:06;8.45;;;2.80;;
66721;SDS011;53633;49.932;10.884;2023-02-28T04:09:38;9.52;;;3.38;;
66721;SDS011;53633;49.932;10.884;2023-02-28T04:12:05;9.30;;;2.78;;
66721;SDS011;53633;49.932;10.884;2023-02-28T04:14:32;7.70;;;2.73;;
66721;SDS011;53633;49.932;10.884;2023-02-28T04:16:59;8.57;;;2.72;;
66721;SDS011;53633;49.932;10.884;2023-02-28T04:19:26;9.77;;;3.35;;
66721;SDS011;53633;49.932;10.884;2023-02-28T04:21:53;7.38;;;2.53;;
66721;SDS011;53633;49.932;10.884;2023-02-28T04:24:21;9.23;;;2.80;;
66721;SDS011;53633;49.932;10.884;2023-02-28T04:26:51;11.97;;;3.63;;
66721;SDS011;53633;49.932;10.884;2023-02-28T04:29:19;8.13;;;2.17;;
66721;SDS011;53633;49.932;10.884;2023-02-28T04:31:47;10.40;;;2.65;;
66721;SDS011;53633;49.932;10.884;2023-02-28T04:34:14;8.82;;;2.88;;
66721;SDS011;53633;49.932;10.884;2023-02-28T04:36:41;8.80;;;2.55;;
66721;SDS011;53633;49.932;10.884;2023-02-28T04:39:08;9.13;;;2.50;;
66721;SDS011;53633;49.932;10.884;2023-02-28T04:41:35;8.90;;;2.83;;
66721;SDS011;53633;49.932;10.884;2023-02-28T04:44:03;10.10;;;2.97;;
66721;SDS011;53633;49.932;10.884;2023-02-28T04:46:30;7.45;;;2.50;;
66721;SDS011;53633;49.932;10.884;2023-02-28T04:48:57;9.30;;;3.03;;
66721;SDS011;53633;49.932;10.884;2023-02-28T04:51:24;8.20;;;2.67;;
66721;SDS011;53633;49.932;10.884;2023-02-28T04:53:51;10.82;;;2.33;;
66721;SDS011;53633;49.932;10.884;2023-02-28T04:56:18;8.00;;;2.45;;
66721;SDS011;53633;49.932;10.884;2023-02-28T04:58:45;9.48;;;2.90;;
66721;SDS011;53633;49.932;10.884;2023-02-28T05:01:18;8.45;;;2.75;;
66721;SDS011;53633;49.932;10.884;2023-02-28T05:03:47;8.40;;;2.70;;
66721;SDS011;53633;49.932;10.884;2023-02-28T05:06:14;9.45;;;3.33;;
66721;SDS011;53633;49.932;10.884;2023-02-28T05:08:42;10.77;;;3.28;;
66721;SDS011;53633;49.932;10.884;2023-02-28T05:11:12;9.88;;;2.33;;
66721;SDS011;53633;49.932;10.884;2023-02-28T05:13:41;8.15;;;2.97;;
66721;SDS011;53633;49.932;10.884;2023-02-28T05:16:08;8.10;;;3.00;;
66721;SDS011;53633;49.932;10.884;2023-02-28T05:18:36;11.00;;;3.42;;
66721;SDS011;53633;49.932;10.884;2023-02-28T05:21:03;10.05;;;3.00;;
66721;SDS011;53633;49.932;10.884;2023-02-28T05:23:30;8.80;;;2.92;;
66721;SDS011;53633;49.932;10.884;2023-02-28T05:25:57;10.15;;;2.85;;
66721;SDS011;53633;49.932;10.884;2023-02-28T05:28:23;11.77;;;4.40;;
66721;SDS011;53633;49.932;10.884;2023-02-28T05:30:50;10.90;;;3.40;;
66721;SDS011;53633;49.932;10.884;2023-02-28T05:33:17;11.48;;;4.03;;
66721;SDS011;53633;49.932;10.884;2023-02-28T05:35:45;10.13;;;3.60;;
66721;SDS011;53633;49.932;10.884;2023-02-28T05:38:12;10.05;;;2.88;;
66721;SDS011;53633;49.932;10.884;2023-02-28T05:40:39;11.20;;;2.70;;
66721;SDS011;53633;49.932;10.884;2023-02-28T05:43:05;9.60;;;3.33;;
66721;SDS011;53633;49.932;10.884;2023-02-28T05:45:36;9.82;;;3.10;;
66721;SDS011;53633;49.932;10.884;2023-02-28T05:48:03;9.88;;;3.33;;
66721;SDS011;53633;49.932;10.884;2023-02-28T05:50:30;10.15;;;3.67;;
66721;SDS011;53633;49.932;10.884;2023-02-28T05:52:58;9.23;;;3.07;;
66721;SDS011;53633;49.932;10.884;2023-02-28T05:55:25;10.23;;;3.65;;
66721;SDS011;53633;49.932;10.884;2023-02-28T05:57:51;9.57;;;3.65;;
66721;SDS011;53633;49.932;10.884;2023-02-28T06:00:18;11.50;;;3.50;;
66721;SDS011;53633;49.932;10.884;2023-02-28T06:02:45;12.73;;;3.53;;
66721;SDS011;53633;49.932;10.884;2023-02-28T06:05:13;11.00;;;4.07;;
66721;SDS011;53633;49.932;10.884;2023-02-28T06:07:41;11.70;;;3.83;;
66721;SDS011;53633;49.932;10.884;2023-02-28T06:10:10;10.73;;;3.70;;
66721;SDS011;53633;49.932;10.884;2023-02-28T06:12:37;12.18;;;4.03;;
66721;SDS011;53633;49.932;10.884;2023-02-28T06:15:05;11.82;;;3.42;;
66721;SDS011;53633;49.932;10.884;2023-02-28T06:17:32;11.80;;;4.37;;
66721;SDS011;53633;49.932;10.884;2023-02-28T06:19:59;11.60;;;4.03;;
66721;SDS011;53633;49.932;10.884;2023-02-28T06:22:25;10.85;;;3.75;;
66721;SDS011;53633;49.932;10.884;2023-02-28T06:24:52;15.10;;;4.72;;
66721;SDS011;53633;49.932;10.884;2023-02-28T06:27:20;13.85;;;5.20;;
66721;SDS011;53633;49.932;10.884;2023-02-28T06:29:47;12.40;;;4.80;;
66721;SDS011;53633;49.932;10.884;2023-02-28T06:32:14;12.65;;;4.25;;
66721;SDS011;53633;49.932;10.884;2023-02-28T06:34:40;16.05;;;6.68;;
66721;SDS011;53633;49.932;10.884;2023-02-28T06:37:07;12.30;;;5.18;;
66721;SDS011;53633;49.932;10.884;2023-02-28T06:39:34;11.73;;;4.70;;
66721;SDS011;53633;49.932;10.884;2023-02-28T06:42:01;11.97;;;5.13;;
66721;SDS011;53633;49.932;10.884;2023-02-28T06:44:29;10.90;;;3.70;;
66721;SDS011;53633;49.932;10.884;2023-02-28T06:46:56;12.90;;;4.28;;
66721;SDS011;53633;49.932;10.884;2023-02-28T06:49:22;13.75;;;4.15;;
66721;SDS011;53633;49.932;10.884;2023-02-28T06:51:49;13.38;;;5.03;;
66721;SDS011;53633;49.932;10.884;2023-02-28T06:54:16;10.47;;;4.27;;
66721;SDS011;53633;49.932;10.884;2023-02-28T06:56:43;11.25;;;4.18;;
66721;SDS011;53633;49.932;10.884;2023-02-28T06:59:09;12.73;;;5.32;;
66721;SDS011;53633;49.932;10.884;2023-02-28T07:01:37;12.43;;;4.30;;
66721;SDS011;53633;49.932;10.884;2023-02-28T07:04:05;11.75;;;4.70;;
66721;SDS011;53633;49.932;10.884;2023-02-28T07:06:32;11.00;;;4.10;;
66721;SDS011;53633;49.932;10.884;2023-02-28T07:09:00;12.93;;;4.75;;
66721;SDS011;53633;49.932;10.884;2023-02-28T07:11:27;10.73;;;4.07;;
66721;SDS011;53633;49.932;10.884;2023-02-28T07:13:55;11.60;;;4.40;;
66721;SDS011;53633;49.932;10.884;2023-02-28T07:16:22;11.23;;;4.13;;
66721;SDS011;53633;49.932;10.884;2023-02-28T07:18:53;11.77;;;3.97;;
66721;SDS011;53633;49.932;10.884;2023-02-28T07:21:20;10.15;;;5.07;;
66721;SDS011;53633;49.932;10.884;2023-02-28T07:23:47;9.35;;;3.85;;
66721;SDS011;53633;49.932;10.884;2023-02-28T07:26:15;10.52;;;4.50;;
66721;SDS011;53633;49.932;10.884;2023-02-28T07:28:43;11.13;;;4.13;;
66721;SDS011;53633;49.932;10.884;2023-02-28T07:31:11;9.77;;;3.60;;
66721;SDS011;53633;49.932;10.884;2023-02-28T07:33:39;13.13;;;6.30;;
66721;SDS011;53633;49.932;10.884;2023-02-28T07:36:08;11.18;;;4.85;;
66721;SDS011;53633;49.932;10.884;2023-02-28T07:38:37;11.02;;;4.35;;
66721;SDS011;53633;49.932;10.884;2023-02-28T07:41:04;10.10;;;4.75;;
66721;SDS011;53633;49.932;10.884;2023-02-28T07:43:31;11.33;;;4.13;;
66721;SDS011;53633;49.932;10.884;2023-02-28T07:46:00;13.00;;;5.57;;
66721;SDS011;53633;49.932;10.884;2023-02-28T07:48:28;13.38;;;5.10;;
66721;SDS011;53633;49.932;10.884;2023-02-28T07:50:55;10.48;;;4.93;;
66721;SDS011;53633;49.932;10.884;2023-02-28T07:53:23;12.35;;;4.63;;
66721;SDS011;53633;49.932;10.884;2023-02-28T07:55:50;11.70;;;4.27;;
66721;SDS011;53633;49.932;10.884;2023-02-28T07:58:22;13.25;;;4.50;;
66721;SDS011;53633;49.932;10.884;2023-02-28T08:00:49;10.90;;;4.78;;
66721;SDS011;53633;49.932;10.884;2023-02-28T08:03:17;12.93;;;4.57;;
66721;SDS011;53633;49.932;10.884;2023-02-28T08:05:44;11.70;;;4.72;;
66721;SDS011;53633;49.932;10.884;2023-02-28T08:08:11;12.40;;;4.93;;
66721;SDS011;53633;49.932;10.884;2023-02-28T08:10:40;11.38;;;4.32;;
66721;SDS011;53633;49.932;10.884;2023-02-28T08:13:06;16.02;;;5.00;;
66721;SDS011;53633;49.932;10.884;2023-02-28T08:15:33;10.73;;;4.60;;
66721;SDS011;53633;49.932;10.884;2023-02-28T08:18:00;10.05;;;4.57;;
66721;SDS011;53633;49.932;10.884;2023-02-28T08:20:27;8.87;;;4.17;;
66721;SDS011;53633;49.932;10.884;2023-02-28T08:22:53;10.38;;;4.35;;
66721;SDS011;53633;49.932;10.884;2023-02-28T08:25:20;11.43;;;5.07;;
66721;SDS011;53633;49.932;10.884;2023-02-28T08:27:48;11.07;;;5.10;;
66721;SDS011;53633;49.932;10.884;2023-02-28T08:30:17;9.98;;;4.85;;
66721;SDS011;53633;49.932;10.884;2023-02-28T08:32:43;10.43;;;4.13;;
66721;SDS011;53633;49.932;10.884;2023-02-28T08:35:10;11.52;;;4.95;;
66721;SDS011;53633;49.932;10.884;2023-02-28T08:37:37;12.73;;;5.13;;
66721;SDS011;53633;49.932;10.884;2023-02-28T08:40:04;11.05;;;4.20;;
66721;SDS011;53633;49.932;10.884;2023-02-28T08:42:32;11.73;;;4.25;;
66721;SDS011;53633;49.932;10.884;2023-02-28T08:45:00;10.77;;;4.77;;
66721;SDS011;53633;49.932;10.884;2023-02-28T08:47:27;12.65;;;5.50;;
66721;SDS011;53633;49.932;10.884;2023-02-28T08:49:54;11.15;;;5.05;;
66721;SDS011;53633;49.932;10.884;2023-02-28T08:52:20;10.57;;;4.00;;
66721;SDS011;53633;49.932;10.884;2023-02-28T08:54:47;13.05;;;4.82;;
66721;SDS011;53633;49.932;10.884;2023-02-28T08:57:14;12.93;;;4.10;;
66721;SDS011;53633;49.932;10.884;2023-02-28T08:59:41;10.10;;;5.30;;
66721;SDS011;53633;49.932;10.884;2023-02-28T09:02:09;12.60;;;4.38;;
66721;SDS011;53633;49.932;10.884;2023-02-28T09:04:39;11.02;;;4.10;;
66721;SDS011;53633;49.932;10.884;2023-02-28T09:07:06;11.38;;;4.28;;
66721;SDS011;53633;49.932;10.884;2023-02-28T09:09:33;12.33;;;4.70;;
66721;SDS011;53633;49.932;10.884;2023-02-28T09:12:00;13.52;;;5.30;;
66721;SDS011;53633;49.932;10.884;2023-02-28T09:14:26;11.10;;;4.18;;
66721;SDS011;53633;49.932;10.884;2023-02-28T09:16:53;10.82;;;4.10;;
66721;SDS011;53633;49.932;10.884;2023-02-28T09:19:21;12.60;;;4.57;;
66721;SDS011;53633;49.932;10.884;2023-02-28T09:21:48;11.23;;;5.00;;
66721;SDS011;53633;49.932;10.884;2023-02-28T09:24:15;13.05;;;4.07;;
66721;SDS011;53633;49.932;10.884;2023-02-28T09:26:42;12.63;;;4.57;;
66721;SDS011;53633;49.932;10.884;2023-02-28T09:29:28;10.57;;;3.92;;
66721;SDS011;53633;49.932;10.884;2023-02-28T09:31:55;11.77;;;4.60;;
66721;SDS011;53633;49.932;10.884;2023-02-28T09:34:23;11.33;;;3.80;;
66721;SDS011;53633;49.932;10.884;2023-02-28T09:36:50;9.40;;;3.75;;
66721;SDS011;53633;49.932;10.884;2023-02-28T09:39:17;11.52;;;4.43;;
66721;SDS011;53633;49.932;10.884;2023-02-28T09:41:44;10.60;;;4.10;;
66721;SDS011;53633;49.932;10.884;2023-02-28T09:44:13;12.88;;;5.28;;
66721;SDS011;53633;49.932;10.884;2023-02-28T09:46:47;10.20;;;4.17;;
66721;SDS011;53633;49.932;10.884;2023-02-28T09:49:16;11.68;;;3.80;;
66721;SDS011;53633;49.932;10.884;2023-02-28T09:51:49;11.95;;;4.28;;
66721;SDS011;53633;49.932;10.884;2023-02-28T09:54:19;9.70;;;3.80;;
66721;SDS011;53633;49.932;10.884;2023-02-28T09:56:48;13.68;;;4.55;;
66721;SDS011;53633;49.932;10.884;2023-02-28T09:59:22;9.90;;;4.03;;
66721;SDS011;53633;49.932;10.884;2023-02-28T10:02:01;11.27;;;3.90;;
66721;SDS011;53633;49.932;10.884;2023-02-28T10:04:41;13.90;;;4.45;;
66721;SDS011;53633;49.932;10.884;2023-02-28T10:07:17;12.43;;;4.88;;
66721;SDS011;53633;49.932;10.884;2023-02-28T10:09:50;11.27;;;4.78;;
66721;SDS011;53633;49.932;10.884;2023-02-28T10:12:21;14.17;;;6.77;;
66721;SDS011;53633;49.932;10.884;2023-02-28T10:14:49;11.93;;;5.20;;
66721;SDS011;53633;49.932;10.884;2023-02-28T10:17:19;11.55;;;4.97;;
66721;SDS011;53633;49.932;10.884;2023-02-28T10:19:50;14.55;;;4.47;;
66721;SDS011;53633;49.932;10.884;2023-02-28T10:22:27;15.48;;;4.88;;
66721;SDS011;53633;49.932;10.884;2023-02-28T10:24:58;13.27;;;5.43;;
66721;SDS011;53633;49.932;10.884;2023-02-28T10:27:28;15.25;;;5.18;;
66721;SDS011;53633;49.932;10.884;2023-02-28T10:29:57;11.65;;;4.93;;
66721;SDS011;53633;49.932;10.884;2023-02-28T10:32:26;10.45;;;4.43;;
66721;SDS011;53633;49.932;10.884;2023-02-28T10:34:55;13.82;;;6.30;;
66721;SDS011;53633;49.932;10.884;2023-02-28T10:37:26;12.10;;;4.93;;
66721;SDS011;53633;49.932;10.884;2023-02-28T10:39:54;13.63;;;4.57;;
66721;SDS011;53633;49.932;10.884;2023-02-28T10:42:22;10.93;;;5.32;;
66721;SDS011;53633;49.932;10.884;2023-02-28T10:44:50;12.18;;;5.68;;
66721;SDS011;53633;49.932;10.884;2023-02-28T10:47:31;13.55;;;4.78;;
66721;SDS011;53633;49.932;10.884;2023-02-28T10:50:00;13.60;;;5.03;;
66721;SDS011;53633;49.932;10.884;2023-02-28T10:52:33;13.00;;;4.88;;
66721;SDS011;53633;49.932;10.884;2023-02-28T10:55:14;12.50;;;5.00;;
66721;SDS011;53633;49.932;10.884;2023-02-28T10:57:45;14.73;;;5.28;;
66721;SDS011;53633;49.932;10.884;2023-02-28T11:00:14;12.85;;;5.13;;
66721;SDS011;53633;49.932;10.884;2023-02-28T11:02:42;15.33;;;5.90;;
66721;SDS011;53633;49.932;10.884;2023-02-28T11:05:23;12.57;;;4.60;;
66721;SDS011;53633;49.932;10.884;2023-02-28T11:07:52;11.85;;;5.63;;
66721;SDS011;53633;49.932;10.884;2023-02-28T11:10:20;12.65;;;4.65;;
66721;SDS011;53633;49.932;10.884;2023-02-28T11:12:53;13.40;;;4.93;;
66721;SDS011;53633;49.932;10.884;2023-02-28T11:15:23;13.37;;;4.77;;
66721;SDS011;53633;49.932;10.884;2023-02-28T11:17:54;13.75;;;5.78;;
66721;SDS011;53633;49.932;10.884;2023-02-28T11:20:23;11.30;;;4.32;;
66721;SDS011;53633;49.932;10.884;2023-02-28T11:22:53;12.82;;;4.90;;
66721;SDS011;53633;49.932;10.884;2023-02-28T11:25:23;12.57;;;5.05;;
66721;SDS011;53633;49.932;10.884;2023-02-28T11:27:52;12.37;;;5.37;;
66721;SDS011;53633;49.932;10.884;2023-02-28T11:30:24;12.07;;;4.85;;
66721;SDS011;53633;49.932;10.884;2023-02-28T11:32:52;12.02;;;5.05;;
66721;SDS011;53633;49.932;10.884;2023-02-28T11:35:21;11.88;;;4.50;;
66721;SDS011;53633;49.932;10.884;2023-02-28T11:37:52;12.07;;;5.80;;
66721;SDS011;53633;49.932;10.884;2023-02-28T11:40:21;14.33;;;4.37;;
66721;SDS011;53633;49.932;10.884;2023-02-28T11:42:57;12.07;;;4.57;;
66721;SDS011;53633;49.932;10.884;2023-02-28T11:45:38;11.75;;;4.43;;
66721;SDS011;53633;49.932;10.884;2023-02-28T11:48:14;12.45;;;4.65;;
66721;SDS011;53633;49.932;10.884;2023-02-28T11:50:49;12.35;;;4.50;;
66721;SDS011;53633;49.932;10.884;2023-02-28T11:53:27;10.90;;;4.03;;
66721;SDS011;53633;49.932;10.884;2023-02-28T11:56:14;9.00;;;3.67;;
66721;SDS011;53633;49.932;10.884;2023-02-28T11:58:49;11.65;;;4.60;;
66721;SDS011;53633;49.932;10.884;2023-02-28T12:01:31;12.50;;;4.78;;
66721;SDS011;53633;49.932;10.884;2023-02-28T12:04:11;12.07;;;3.88;;
66721;SDS011;53633;49.932;10.884;2023-02-28T12:06:49;11.93;;;5.27;;
66721;SDS011;53633;49.932;10.884;2023-02-28T12:12:15;12.90;;;3.92;;
66721;SDS011;53633;49.932;10.884;2023-02-28T12:14:59;13.55;;;5.35;;
66721;SDS011;53633;49.932;10.884;2023-02-28T12:17:42;12.40;;;4.80;;
66721;SDS011;53633;49.932;10.884;2023-02-28T12:20:21;13.27;;;4.97;;
66721;SDS011;53633;49.932;10.884;2023-02-28T12:22:54;13.55;;;5.53;;
66721;SDS011;53633;49.932;10.884;2023-02-28T12:25:43;11.60;;;4.03;;
66721;SDS011;53633;49.932;10.884;2023-02-28T12:28:29;11.23;;;4.72;;
66721;SDS011;53633;49.932;10.884;2023-02-28T12:31:01;10.73;;;4.47;;
66721;SDS011;53633;49.932;10.884;2023-02-28T12:33:35;11.43;;;4.45;;
66721;SDS011;53633;49.932;10.884;2023-02-28T12:36:09;11.88;;;5.03;;
66721;SDS011;53633;49.932;10.884;2023-02-28T12:38:38;12.38;;;4.57;;
66721;SDS011;53633;49.932;10.884;2023-02-28T12:41:09;11.32;;;4.97;;
66721;SDS011;53633;49.932;10.884;2023-02-28T12:43:42;12.35;;;4.50;;
66721;SDS011;53633;49.932;10.884;2023-02-28T12:46:12;15.55;;;4.88;;
66721;SDS011;53633;49.932;10.884;2023-02-28T12:48:44;13.87;;;4.90;;
66721;SDS011;53633;49.932;10.884;2023-02-28T12:51:13;12.35;;;4.90;;
66721;SDS011;53633;49.932;10.884;2023-02-28T12:56:33;11.82;;;4.22;;
66721;SDS011;53633;49.932;10.884;2023-02-28T12:59:12;11.63;;;4.70;;
66721;SDS011;53633;49.932;10.884;2023-02-28T13:05:00;10.02;;;4.05;;
66721;SDS011;53633;49.932;10.884;2023-02-28T13:07:56;11.40;;;4.45;;
66721;SDS011;53633;49.932;10.884;2023-02-28T13:10:38;12.27;;;4.68;;
66721;SDS011;53633;49.932;10.884;2023-02-28T13:13:11;10.88;;;4.18;;
66721;SDS011;53633;49.932;10.884;2023-02-28T13:15:42;12.70;;;3.80;;
66721;SDS011;53633;49.932;10.884;2023-02-28T13:18:27;12.13;;;4.93;;
66721;SDS011;53633;49.932;10.884;2023-02-28T13:20:56;12.32;;;4.80;;
66721;SDS011;53633;49.932;10.884;2023-02-28T13:29:31;11.30;;;4.20;;
66721;SDS011;53633;49.932;10.884;2023-02-28T13:38:21;15.77;;;7.07;;
66721;SDS011;53633;49.932;10.884;2023-02-28T13:40:50;12.32;;;4.72;;
66721;SDS011;53633;49.932;10.884;2023-02-28T13:43:17;12.77;;;4.70;;
66721;SDS011;53633;49.932;10.884;2023-02-28T13:46:10;11.80;;;4.18;;
66721;SDS011;53633;49.932;10.884;2023-02-28T13:48:39;11.30;;;4.20;;
66721;SDS011;53633;49.932;10.884;2023-02-28T13:54:02;9.45;;;4.13;;
66721;SDS011;53633;49.932;10.884;2023-02-28T13:56:37;11.15;;;5.20;;
66721;SDS011;53633;49.932;10.884;2023-02-28T13:59:17;12.82;;;4.90;;
66721;SDS011;53633;49.932;10.884;2023-02-28T14:04:58;10.23;;;3.60;;
66721;SDS011;53633;49.932;10.884;2023-02-28T14:07:29;11.07;;;4.60;;
66721;SDS011;53633;49.932;10.884;2023-02-28T14:10:02;12.20;;;4.37;;
66721;SDS011;53633;49.932;10.884;2023-02-28T14:15:36;9.63;;;4.32;;
66721;SDS011;53633;49.932;10.884;2023-02-28T14:18:13;11.68;;;4.13;;
66721;SDS011;53633;49.932;10.884;2023-02-28T14:20:43;13.63;;;4.65;;
66721;SDS011;53633;49.932;10.884;2023-02-28T14:23:16;15.87;;;6.47;;
66721;SDS011;53633;49.932;10.884;2023-02-28T14:25:53;12.02;;;4.32;;
66721;SDS011;53633;49.932;10.884;2023-02-28T14:28:28;12.82;;;5.35;;
66721;SDS011;53633;49.932;10.884;2023-02-28T14:31:10;11.10;;;3.95;;
66721;SDS011;53633;49.932;10.884;2023-02-28T14:33:46;11.38;;;4.00;;
66721;SDS011;53633;49.932;10.884;2023-02-28T14:36:25;12.03;;;4.60;;
66721;SDS011;53633;49.932;10.884;2023-02-28T14:38:59;11.05;;;4.88;;
66721;SDS011;53633;49.932;10.884;2023-02-28T14:41:31;10.85;;;4.63;;
66721;SDS011;53633;49.932;10.884;2023-02-28T14:44:00;11.55;;;4.10;;
66721;SDS011;53633;49.932;10.884;2023-02-28T14:46:28;10.85;;;4.07;;
66721;SDS011;53633;49.932;10.884;2023-02-28T14:49:02;10.73;;;4.30;;
66721;SDS011;53633;49.932;10.884;2023-02-28T14:51:30;9.38;;;3.72;;
66721;SDS011;53633;49.932;10.884;2023-02-28T14:53:58;10.75;;;4.05;;
66721;SDS011;53633;49.932;10.884;2023-02-28T14:56:29;10.95;;;4.15;;
66721;SDS011;53633;49.932;10.884;2023-02-28T14:59:00;11.45;;;4.10;;
66721;SDS011;53633;49.932;10.884;2023-02-28T15:01:27;12.65;;;4.40;;
66721;SDS011;53633;49.932;10.884;2023-02-28T15:03:58;10.98;;;4.40;;
66721;SDS011;53633;49.932;10.884;2023-02-28T15:06:26;11.57;;;3.90;;
66721;SDS011;53633;49.932;10.884;2023-02-28T15:09:13;10.80;;;4.63;;
66721;SDS011;53633;49.932;10.884;2023-02-28T15:11:42;11.32;;;4.13;;
66721;SDS011;53633;49.932;10.884;2023-02-28T15:14:14;10.00;;;4.00;;
66721;SDS011;53633;49.932;10.884;2023-02-28T15:16:45;9.35;;;4.03;;
66721;SDS011;53633;49.932;10.884;2023-02-28T15:19:14;10.30;;;4.10;;
66721;SDS011;53633;49.932;10.884;2023-02-28T15:21:47;10.40;;;4.22;;